Latest Coastal Weather Observations for Adele Island

IDW60701

Issued at 6:05 am WST Sunday 21 September 2014 (issued every 10 minutes, with the page automatically refreshed every 10 minutes)

About coastal observations | Map of coastal stations | Coastal observations for WA | Marine services | Other Formats
Station Details ID: 200735 Name: ADELE ISLAND Lat: -15.51 Lon: 123.16 Height: 4.6 m
Data from the previous 72 hours. | See also: Recent months for locations in Western Australia
Date/Time
WST
Temp

°C
Wind Pressure Rain
since 9am
mm
Weather Cloud Vis
km
Sea
Height
m
Swell
Dir
 
Speed
knots
Gust
knots
hPa Trend Height
m
Period
s
Dir
21/06:00am 25.4 W 10 11 1014.5 - - - - - - - - -
21/05:30am 25.1 W 10 11 1014.1 - - - - - - - - -
21/05:00am 25.1 W 10 11 1013.9 - - - - - - - - -
21/04:30am 25.2 NW 7 8 1014.1 - - - - - - - - -
21/04:00am 25.2 NNW 7 9 1013.7 - - - - - - - - -
21/03:30am 25.4 NNW 6 8 1013.4 - - - - - - - - -
21/03:00am 25.4 NW 7 9 1013.5 - - - - - - - - -
21/02:30am 25.3 NW 8 9 1013.3 - - - - - - - - -
21/02:00am 25.6 NW 8 9 1013.2 - - - - - - - - -
21/01:30am 25.5 NW 9 10 1013.1 - - - - - - - - -
21/01:00am 25.5 NW 8 9 1013.4 - - - - - - - - -
21/12:30am 25.6 NW 7 9 1013.5 - - - - - - - - -
21/12:00am 25.8 WNW 7 9 1013.8 - - - - - - - - -
 
Date/Time
WST
Temp

°C
Wind Pressure Rain
since 9am
mm
Weather Cloud Vis
km
Sea
Height
m
Swell
Dir
 
Speed
knots
Gust
knots
hPa Trend Height
m
Period
s
Dir
20/11:30pm 25.9 WNW 9 11 1014.0 - - - - - - - - -
20/11:00pm 26.0 W 9 11 1014.1 - - - - - - - - -
20/10:30pm 26.0 W 11 13 1014.2 - - - - - - - - -
20/10:00pm 26.0 W 11 13 1014.2 - - - - - - - - -
20/09:30pm 26.2 W 12 14 1014.2 - - - - - - - - -
20/09:00pm 26.2 WNW 11 14 1014.2 - - - - - - - - -
20/08:30pm 26.2 WNW 11 14 1014.1 - - - - - - - - -
20/08:00pm 26.2 WNW 11 15 1013.8 - - - - - - - - -
20/07:30pm 26.3 WNW 11 13 1013.6 - - - - - - - - -
20/07:00pm 26.3 WNW 11 13 1013.4 - - - - - - - - -
20/06:30pm 26.3 NW 10 11 1013.1 - - - - - - - - -
20/06:00pm 26.1 NW 8 9 1012.8 - - - - - - - - -
20/05:30pm 26.4 NW 7 9 1012.6 - - - - - - - - -
20/05:00pm 26.9 NW 7 9 1012.0 - - - - - - - - -
20/04:30pm 27.6 WNW 7 9 1011.9 - - - - - - - - -
20/04:00pm 27.6 NW 7 9 1011.9 - - - - - - - - -
20/03:30pm 27.9 NW 6 7 1012.1 - - - - - - - - -
20/03:00pm 27.9 WNW 6 8 1012.1 - - - - - - - - -
20/02:30pm 27.5 W 7 9 1012.1 - - - - - - - - -
20/02:00pm 27.8 W 8 11 1012.0 - - - - - - - - -
20/01:30pm 27.4 W 9 11 1012.2 - - - - - - - - -
20/01:00pm 28.0 W 10 12 1012.4 - - - - - - - - -
20/12:30pm 27.4 W 8 10 1012.9 - - - - - - - - -
20/12:00pm 27.8 WSW 8 11 1013.5 - - - - - - - - -
20/11:30am 27.3 WSW 9 11 1014.1 - - - - - - - - -
20/11:00am 27.2 WSW 9 11 1014.4 - - - - - - - - -
20/10:30am 27.3 WSW 8 10 1014.9 - - - - - - - - -
20/10:00am 27.2 SW 10 13 1014.9 - - - - - - - - -
20/09:30am 26.6 SSW 11 13 1015.0 - - - - - - - - -
20/09:00am 27.0 SSW 9 12 1015.2 - - - - - - - - -
20/08:30am 26.4 SW 9 11 1015.2 - - - - - - - - -
20/08:00am 26.6 SW 8 9 1015.3 - - - - - - - - -
20/07:30am 26.2 WSW 6 7 1015.2 - - - - - - - - -
20/07:00am 25.7 N 3 6 1015.0 - - - - - - - - -
20/06:30am 25.3 W 6 6 1014.7 - - - - - - - - -
20/06:00am 25.2 WNW 6 6 1014.4 - - - - - - - - -
20/05:30am 25.4 W 6 7 1014.2 - - - - - - - - -
20/05:00am 25.2 W 7 8 1013.9 - - - - - - - - -
20/04:30am 25.3 NW 6 7 1013.6 - - - - - - - - -
20/04:00am 25.4 NW 6 7 1013.5 - - - - - - - - -
20/03:30am 25.2 WNW 7 8 1013.2 - - - - - - - - -
20/03:00am 25.2 WNW 7 8 1013.1 - - - - - - - - -
20/02:30am 25.6 W 8 9 1013.2 - - - - - - - - -
20/02:00am 25.8 W 8 9 1013.3 - - - - - - - - -
20/01:30am 25.3 WNW 7 8 1013.5 - - - - - - - - -
20/01:00am 25.4 WNW 7 9 1013.8 - - - - - - - - -
20/12:30am 25.8 W 9 10 1014.2 - - - - - - - - -
20/12:00am 25.8 W 10 11 1014.5 - - - - - - - - -
 
Date/Time
WST
Temp

°C
Wind Pressure Rain
since 9am
mm
Weather Cloud Vis
km
Sea
Height
m
Swell
Dir
 
Speed
knots
Gust
knots
hPa Trend Height
m
Period
s
Dir
19/11:30pm 25.8 W 9 11 1014.9 - - - - - - - - -
19/11:00pm 25.9 W 11 13 1014.8 - - - - - - - - -
19/10:30pm 25.9 WSW 12 15 1014.9 - - - - - - - - -
19/10:00pm 26.0 WSW 13 15 1014.6 - - - - - - - - -
19/09:30pm 26.0 WSW 13 16 1014.5 - - - - - - - - -
19/09:00pm 26.1 WSW 15 18 1014.7 - - - - - - - - -
19/08:30pm 26.1 WSW 13 17 1014.5 - - - - - - - - -
19/08:00pm 26.0 WSW 13 16 1014.6 - - - - - - - - -
19/07:30pm 26.2 W 13 16 1014.4 - - - - - - - - -
19/07:00pm 26.1 W 12 15 1014.2 - - - - - - - - -
19/06:30pm 26.2 W 13 15 1013.9 - - - - - - - - -
19/06:00pm 26.2 W 12 15 1013.7 - - - - - - - - -
19/05:30pm 26.4 W 11 14 1013.4 - - - - - - - - -
19/05:00pm 26.8 W 11 14 1013.1 - - - - - - - - -
19/04:30pm 27.1 WNW 11 14 1013.1 - - - - - - - - -
19/04:00pm 27.2 WNW 11 14 1012.9 - - - - - - - - -
19/03:30pm 27.5 NW 10 13 1013.0 - - - - - - - - -
19/03:00pm 27.9 NW 10 13 1013.3 - - - - - - - - -
19/02:30pm 27.8 WNW 10 12 1013.6 - - - - - - - - -
19/02:00pm 28.0 WNW 9 12 1013.9 - - - - - - - - -
19/01:30pm 27.8 W 9 11 1014.2 - - - - - - - - -
19/01:00pm 27.6 WNW 10 11 1014.6 - - - - - - - - -
19/12:30pm 27.1 NNW 10 11 1015.1 - - - - - - - - -
19/12:00pm 28.2 WNW 7 10 1015.6 - - - - - - - - -
19/11:30am 27.7 W 7 10 1015.5 - - - - - - - - -
19/11:00am 27.4 W 8 10 1015.9 - - - - - - - - -
19/10:30am 27.8 NNW 6 8 1016.3 - - - - - - - - -
19/10:00am 27.4 W 7 9 1016.6 - - - - - - - - -
19/09:30am 27.4 WSW 7 8 1016.7 - - - - - - - - -
19/09:00am 26.7 WSW 8 9 1016.7 - - - - - - - - -
19/08:30am 27.2 NW 6 7 1016.8 - - - - - - - - -
19/08:00am 26.2 NNW 5 6 1016.9 - - - - - - - - -
19/07:30am 26.1 N 5 6 1016.8 - - - - - - - - -
19/07:00am 25.7 N 6 7 1016.5 - - - - - - - - -
19/06:30am 25.6 NNW 3 5 1016.0 - - - - - - - - -
19/06:00am 25.3 CALM 0 0 1015.3 - - - - - - - - -
19/05:30am 25.1 CALM 0 0 1014.9 - - - - - - - - -
19/05:00am 24.9 CALM 0 0 1014.7 - - - - - - - - -
19/04:30am 25.4 N 1 3 1014.2 - - - - - - - - -
19/04:00am 25.4 N 3 3 1014.0 - - - - - - - - -
19/03:30am 25.5 N 4 4 1013.7 - - - - - - - - -
19/03:00am 25.8 NNW 5 6 1013.6 - - - - - - - - -
19/02:30am 25.5 NW 6 7 1013.5 - - - - - - - - -
19/02:00am 25.3 WNW 8 9 1013.4 - - - - - - - - -
19/01:30am 25.3 W 9 11 1013.6 - - - - - - - - -
19/01:00am 25.7 W 8 9 1013.9 - - - - - - - - -
19/12:30am 25.6 WSW 10 13 1014.0 - - - - - - - - -
19/12:00am 25.6 WSW 11 14 1014.3 - - - - - - - - -
 
Date/Time
WST
Temp

°C
Wind Pressure Rain
since 9am
mm
Weather Cloud Vis
km
Sea
Height
m
Swell
Dir
 
Speed
knots
Gust
knots
hPa Trend Height
m
Period
s
Dir
18/11:30pm 25.5 WSW 13 16 1014.5 - - - - - - - - -
18/11:00pm 25.5 WSW 14 17 1014.8 - - - - - - - - -
18/10:30pm 25.5 WSW 14 17 1015.0 - - - - - - - - -
18/10:00pm 25.7 WSW 14 17 1015.1 - - - - - - - - -
18/09:30pm 25.7 W 13 16 1015.4 - - - - - - - - -
18/09:00pm 25.7 W 13 15 1015.5 - - - - - - - - -
18/08:30pm 25.6 W 11 13 1015.5 - - - - - - - - -
18/08:00pm 25.6 W 10 13 1015.4 - - - - - - - - -
18/07:30pm 25.6 WNW 9 11 1015.3 - - - - - - - - -
18/07:00pm 25.7 WNW 9 11 1015.1 - - - - - - - - -
18/06:30pm 25.7 W 8 10 1014.7 - - - - - - - - -
18/06:00pm 25.7 W 8 9 1014.3 - - - - - - - - -
18/05:30pm 25.9 WNW 5 6 1014.0 - - - - - - - - -
18/05:00pm 26.3 WNW 5 6 1013.7 - - - - - - - - -
18/04:30pm 26.7 WNW 5 6 1013.5 - - - - - - - - -
18/04:00pm 26.7 NW 5 6 1013.5 - - - - - - - - -
18/03:30pm 26.6 W 6 8 1013.2 - - - - - - - - -
18/03:00pm 27.0 W 7 8 1013.3 - - - - - - - - -
18/02:30pm 27.1 W 6 9 1013.4 - - - - - - - - -
18/02:00pm 27.3 W 7 9 1013.5 - - - - - - - - -
18/01:30pm 26.7 W 7 10 1013.8 - - - - - - - - -
18/01:00pm 26.7 W 9 11 1014.1 - - - - - - - - -
18/12:30pm 27.2 W 8 11 1014.4 - - - - - - - - -
18/12:00pm 26.5 WSW 8 12 1014.9 - - - - - - - - -
18/11:30am 26.3 WSW 8 11 1015.4 - - - - - - - - -
18/11:00am 27.1 SW 8 11 1016.0 - - - - - - - - -
18/10:30am 26.2 SW 7 11 1016.5 - - - - - - - - -
18/10:00am 26.5 S 7 11 1017.1 - - - - - - - - -
18/09:30am 26.1 SSW 9 12 1017.2 - - - - - - - - -
18/09:00am 26.4 SSW 8 10 1017.2 - - - - - - - - -
18/08:30am 26.3 SSW 6 8 1017.1 - - - - - - - - -
18/08:00am 26.1 W 6 7 1017.1 - - - - - - - - -
18/07:30am 25.9 NNW 5 7 1016.7 - - - - - - - - -
18/07:00am 25.6 WNW 6 8 1016.4 - - - - - - - - -
18/06:30am 25.2 WNW 6 7 1016.2 - - - - - - - - -

Other Formats:

Comma delimited format used in spreadsheet applications
http://www.bom.gov.au/fwo/IDW60701/IDW60701.94210.axf

JavaScript Object Notation format (JSON) in row-major order
http://www.bom.gov.au/fwo/IDW60701/IDW60701.94210.json